Weather at Sarikei Hospital Heliport

Public forecast

Using degrees Celsius for public forecast. Weather courtesy of forecast.io.

Closest aviation weather report (METAR) to Sarikei Hospital Heliport

Closest report is Sibu Airport, 30.5 nm (56.5 km) ENE.

2024/05/20 17:00 (retrieved 42 minutes ago)

WBGS 201700Z VRB02KT 9999 SCT017 25/25 Q1009

Closest aviation forecast (TAF) to Sarikei Hospital Heliport

Closest forecast is Sibu Airport, 30.5 nm (56.5 km) ENE.

2024/05/20 12:00 (retrieved 6 hours ago)

TAF WBGS 201100Z 2012/2112 21005KT 9999 SCT016